Time;durP1;ratioP1;P1;durP2;ratioP2;P2;SDS_P1;SDS_P2;PMS_P1;PMS_P2;Temp;Humidity;BMP_temperature;BMP_pressure;BME280_temperature;BME280_humidity;BME280_pressure;Samples;Min_cycle;Max_cycle;Signal;HPM_P1;HPM_P2
2022/08/26 00:00:44;;;;;;;5.50;2.47;;;;;;;;;;4954638;29;20036;-74
2022/08/26 00:03:11;;;;;;;4.95;2.55;;;;;;;;;;4954460;29;20442;-74
2022/08/26 00:05:38;;;;;;;6.15;2.28;;;;;;;;;;4954466;29;20034;-74
2022/08/26 00:08:04;;;;;;;6.20;2.50;;;;;;;;;;4954742;29;20047;-75
2022/08/26 00:10:31;;;;;;;8.60;2.42;;;;;;;;;;4954359;29;20098;-75
2022/08/26 00:12:57;;;;;;;9.98;3.42;;;;;;;;;;4954072;29;20175;-77
2022/08/26 00:15:23;;;;;;;6.28;2.42;;;;;;;;;;4954506;29;20106;-75
2022/08/26 00:17:51;;;;;;;7.63;3.42;;;;;;;;;;4954361;29;20399;-74
2022/08/26 00:20:20;;;;;;;8.55;3.13;;;;;;;;;;4954533;29;20027;-75
2022/08/26 00:22:46;;;;;;;11.20;3.67;;;;;;;;;;4954248;29;20031;-74
2022/08/26 00:25:12;;;;;;;6.78;2.88;;;;;;;;;;4954328;29;20114;-75
2022/08/26 00:27:38;;;;;;;15.75;3.60;;;;;;;;;;4954508;29;20106;-75
2022/08/26 00:30:07;;;;;;;8.18;2.80;;;;;;;;;;4954427;29;20097;-75
2022/08/26 00:32:33;;;;;;;5.40;2.83;;;;;;;;;;4954035;29;20146;-73
2022/08/26 00:34:59;;;;;;;8.48;3.20;;;;;;;;;;4953901;29;20031;-74
2022/08/26 00:37:25;;;;;;;9.88;2.97;;;;;;;;;;4954172;29;20112;-73
2022/08/26 00:39:51;;;;;;;10.90;3.03;;;;;;;;;;4954130;29;20027;-73
2022/08/26 00:42:17;;;;;;;8.05;3.63;;;;;;;;;;4953922;29;20091;-74
2022/08/26 00:44:43;;;;;;;6.20;2.45;;;;;;;;;;4953224;29;20031;-73
2022/08/26 00:47:34;;;;;;;7.53;2.70;;;;;;;;;;4936898;29;20078;-74
2022/08/26 00:50:03;;;;;;;7.93;2.55;;;;;;;;;;4936567;29;20035;-73
2022/08/26 00:52:29;;;;;;;8.02;2.80;;;;;;;;;;4953606;29;20094;-74
2022/08/26 00:55:08;;;;;;;6.22;2.70;;;;;;;;;;4953492;29;20075;-74
2022/08/26 00:57:35;;;;;;;8.23;2.80;;;;;;;;;;4953515;29;20386;-74
2022/08/26 01:00:06;;;;;;;6.97;2.38;;;;;;;;;;4953760;29;20100;-73
2022/08/26 01:02:33;;;;;;;9.15;2.72;;;;;;;;;;4953653;29;20409;-73
2022/08/26 01:05:01;;;;;;;8.30;2.90;;;;;;;;;;4953837;29;20102;-75
2022/08/26 01:07:29;;;;;;;4.10;2.22;;;;;;;;;;4953773;29;20110;-74
2022/08/26 01:09:57;;;;;;;6.38;2.15;;;;;;;;;;4952964;28;20026;-74
2022/08/26 01:12:26;;;;;;;6.05;2.00;;;;;;;;;;4935574;29;20042;-77
2022/08/26 01:14:53;;;;;;;6.20;2.40;;;;;;;;;;4953366;29;20050;-74
2022/08/26 01:17:19;;;;;;;5.38;2.60;;;;;;;;;;4953002;29;20046;-75
2022/08/26 01:20:24;;;;;;;9.02;2.60;;;;;;;;;;4953594;29;20059;-74
2022/08/26 01:22:59;;;;;;;3.80;2.05;;;;;;;;;;4924361;29;20097;-74
2022/08/26 01:25:28;;;;;;;3.97;2.28;;;;;;;;;;4936199;29;20449;-74
2022/08/26 01:27:57;;;;;;;5.80;2.33;;;;;;;;;;4936454;29;20378;-74
2022/08/26 01:30:28;;;;;;;6.97;2.20;;;;;;;;;;4953557;29;20036;-75
2022/08/26 01:32:57;;;;;;;5.75;2.30;;;;;;;;;;4953279;29;20039;-74
2022/08/26 01:35:23;;;;;;;6.88;2.60;;;;;;;;;;4953423;29;20086;-75
2022/08/26 01:37:53;;;;;;;5.10;2.38;;;;;;;;;;4953088;29;20035;-74
2022/08/26 01:40:27;;;;;;;5.85;1.90;;;;;;;;;;4953030;29;20065;-74
2022/08/26 01:42:53;;;;;;;6.88;2.05;;;;;;;;;;4953178;29;20027;-75
2022/08/26 01:45:24;;;;;;;6.68;2.53;;;;;;;;;;4953361;29;20070;-77
2022/08/26 01:47:53;;;;;;;4.97;2.15;;;;;;;;;;4953145;29;20027;-75
2022/08/26 01:50:29;;;;;;;4.65;2.13;;;;;;;;;;4952352;29;20097;-74
2022/08/26 01:52:58;;;;;;;5.65;2.20;;;;;;;;;;4953164;29;20094;-75
2022/08/26 01:55:26;;;;;;;6.63;2.67;;;;;;;;;;4953248;29;20031;-74
2022/08/26 01:57:55;;;;;;;5.28;2.33;;;;;;;;;;4952869;29;20520;-74
2022/08/26 02:00:22;;;;;;;11.00;2.50;;;;;;;;;;4952945;29;20114;-74
2022/08/26 02:03:15;;;;;;;8.43;2.30;;;;;;;;;;4952889;29;20040;-75
2022/08/26 02:05:37;;;;;;;4.53;2.22;;;;;;;;;;4952898;29;20032;-75
2022/08/26 02:08:04;;;;;;;5.57;2.42;;;;;;;;;;4953060;29;20063;-74
2022/08/26 02:10:30;;;;;;;4.32;2.72;;;;;;;;;;4952968;29;20043;-75
2022/08/26 02:12:55;;;;;;;4.95;2.20;;;;;;;;;;4952653;29;20027;-75
2022/08/26 02:15:21;;;;;;;5.93;2.60;;;;;;;;;;4952317;29;20548;-77
2022/08/26 02:17:47;;;;;;;7.13;2.35;;;;;;;;;;4952260;29;20541;-74
2022/08/26 02:20:18;;;;;;;5.75;2.50;;;;;;;;;;4952484;29;20147;-74
2022/08/26 02:22:45;;;;;;;7.45;2.80;;;;;;;;;;4953725;28;20027;-76
2022/08/26 02:25:40;;;;;;;3.88;2.50;;;;;;;;;;4956390;29;20023;-75
2022/08/26 02:28:08;;;;;;;5.95;2.50;;;;;;;;;;4956263;29;20027;-74
2022/08/26 02:30:34;;;;;;;7.28;2.53;;;;;;;;;;4956446;29;20034;-75
2022/08/26 02:33:02;;;;;;;6.53;2.67;;;;;;;;;;4956348;29;20035;-74
2022/08/26 02:35:29;;;;;;;5.10;2.22;;;;;;;;;;4956370;29;20129;-75
2022/08/26 02:37:56;;;;;;;3.75;2.00;;;;;;;;;;4955737;29;20046;-72
2022/08/26 02:40:29;;;;;;;6.45;2.78;;;;;;;;;;4955773;29;20106;-75
2022/08/26 02:42:55;;;;;;;6.88;2.40;;;;;;;;;;4956064;29;20115;-74
2022/08/26 02:45:22;;;;;;;5.22;2.40;;;;;;;;;;4955325;29;20031;-75
2022/08/26 02:47:49;;;;;;;5.40;2.67;;;;;;;;;;4949480;29;20042;-75
2022/08/26 02:50:15;;;;;;;5.32;2.53;;;;;;;;;;4955367;29;20467;-74
2022/08/26 02:52:40;;;;;;;4.55;2.38;;;;;;;;;;4955934;29;20114;-75
2022/08/26 02:55:07;;;;;;;5.97;2.10;;;;;;;;;;4955577;28;20034;-75
2022/08/26 02:57:33;;;;;;;5.25;2.20;;;;;;;;;;4955666;29;20071;-74
2022/08/26 02:59:59;;;;;;;7.10;2.60;;;;;;;;;;4954211;29;20446;-74
2022/08/26 03:02:27;;;;;;;4.55;2.50;;;;;;;;;;4955804;28;20438;-74
2022/08/26 03:04:52;;;;;;;5.45;2.60;;;;;;;;;;4955675;28;20058;-74
2022/08/26 03:07:19;;;;;;;5.15;2.50;;;;;;;;;;4955324;28;20031;-74
2022/08/26 03:09:45;;;;;;;6.45;2.45;;;;;;;;;;4955487;29;20134;-75
2022/08/26 03:12:11;;;;;;;5.53;2.40;;;;;;;;;;4955733;29;20471;-75
2022/08/26 03:14:37;;;;;;;12.05;2.97;;;;;;;;;;4955628;28;20030;-74
2022/08/26 03:17:03;;;;;;;7.80;3.30;;;;;;;;;;4954756;28;20031;-75
2022/08/26 03:19:29;;;;;;;7.75;3.17;;;;;;;;;;4955411;28;20094;-74
2022/08/26 03:21:55;;;;;;;7.93;2.70;;;;;;;;;;4954362;29;20559;-75
2022/08/26 03:24:21;;;;;;;6.70;3.03;;;;;;;;;;4955023;28;20059;-75
2022/08/26 03:26:47;;;;;;;6.35;3.10;;;;;;;;;;4955252;28;20073;-76
2022/08/26 03:31:59;;;;;;;7.65;3.53;;;;;;;;;;4955063;29;20083;-73
2022/08/26 03:34:25;;;;;;;13.68;4.68;;;;;;;;;;4952825;28;20022;-74
2022/08/26 03:36:51;;;;;;;7.53;3.30;;;;;;;;;;4955499;28;20028;-75
2022/08/26 03:39:17;;;;;;;4.93;3.17;;;;;;;;;;4955400;28;20027;-74
2022/08/26 03:41:46;;;;;;;5.10;2.90;;;;;;;;;;4955320;29;20474;-74
2022/08/26 03:44:13;;;;;;;5.45;2.90;;;;;;;;;;4955122;28;20429;-75
2022/08/26 03:46:39;;;;;;;6.45;3.33;;;;;;;;;;4955349;28;20488;-75
2022/08/26 03:49:06;;;;;;;6.18;3.30;;;;;;;;;;4954940;28;20133;-75
2022/08/26 03:51:33;;;;;;;9.57;3.20;;;;;;;;;;4955103;28;20118;-74
2022/08/26 03:54:01;;;;;;;4.20;2.63;;;;;;;;;;4955037;28;20031;-73
2022/08/26 03:56:28;;;;;;;10.85;3.50;;;;;;;;;;4955020;28;20486;-75
2022/08/26 03:58:54;;;;;;;7.57;2.80;;;;;;;;;;4954592;28;20490;-74
2022/08/26 04:01:20;;;;;;;4.60;2.63;;;;;;;;;;4953706;29;20465;-75
2022/08/26 04:03:59;;;;;;;7.30;2.90;;;;;;;;;;4954306;29;20034;-75
2022/08/26 04:06:31;;;;;;;5.30;3.20;;;;;;;;;;4937766;29;20324;-74
2022/08/26 04:09:00;;;;;;;6.97;3.03;;;;;;;;;;4954272;29;20031;-73
2022/08/26 04:11:30;;;;;;;8.13;3.35;;;;;;;;;;4955413;29;20090;-74
2022/08/26 04:14:00;;;;;;;10.88;3.67;;;;;;;;;;4953806;29;20434;-73
2022/08/26 04:16:28;;;;;;;9.15;3.30;;;;;;;;;;4953150;29;20050;-74
2022/08/26 04:18:55;;;;;;;8.70;3.30;;;;;;;;;;4954279;29;20099;-74
2022/08/26 04:21:21;;;;;;;9.23;3.08;;;;;;;;;;4954321;29;20501;-74
2022/08/26 04:23:48;;;;;;;9.73;3.70;;;;;;;;;;4954144;29;20110;-75
2022/08/26 04:26:15;;;;;;;10.20;3.40;;;;;;;;;;4953917;29;20471;-74
2022/08/26 04:28:41;;;;;;;10.60;2.90;;;;;;;;;;4936419;29;20082;-73
2022/08/26 04:31:15;;;;;;;19.65;4.05;;;;;;;;;;4953656;29;20039;-74
2022/08/26 04:33:46;;;;;;;32.22;4.88;;;;;;;;;;4953671;29;20058;-73
2022/08/26 04:36:13;;;;;;;15.23;4.45;;;;;;;;;;4954191;29;20035;-75
2022/08/26 04:38:39;;;;;;;15.95;4.18;;;;;;;;;;4953745;29;20035;-74
2022/08/26 04:41:10;;;;;;;27.15;4.50;;;;;;;;;;4953658;29;20045;-74
2022/08/26 04:43:36;;;;;;;17.45;3.85;;;;;;;;;;4953603;29;20047;-74
2022/08/26 04:46:04;;;;;;;21.58;3.60;;;;;;;;;;4947670;28;20029;-74
2022/08/26 04:48:32;;;;;;;13.63;3.75;;;;;;;;;;4957413;28;20097;-75
2022/08/26 04:50:58;;;;;;;26.13;4.43;;;;;;;;;;4951057;28;20031;-74
2022/08/26 04:53:25;;;;;;;28.80;4.95;;;;;;;;;;4965805;28;20028;-74
2022/08/26 04:55:51;;;;;;;19.48;4.30;;;;;;;;;;4951522;29;20034;-74
2022/08/26 04:58:19;;;;;;;17.27;3.63;;;;;;;;;;4956549;28;20074;-76
2022/08/26 05:00:51;;;;;;;21.98;4.63;;;;;;;;;;4964295;28;20027;-75
2022/08/26 05:03:17;;;;;;;15.68;3.58;;;;;;;;;;4952851;29;20035;-74
2022/08/26 05:05:45;;;;;;;9.57;2.92;;;;;;;;;;4952208;29;20027;-75
2022/08/26 05:08:13;;;;;;;13.50;3.35;;;;;;;;;;4952687;29;20182;-83
2022/08/26 05:10:57;;;;;;;10.07;2.70;;;;;;;;;;4951428;29;20035;-80
2022/08/26 05:19:40;;;;;;;19.10;3.40;;;;;;;;;;4747583;28;20066;-80
2022/08/26 05:28:21;;;;;;;10.15;3.25;;;;;;;;;;4147172;28;20068;-77
2022/08/26 05:30:50;;;;;;;12.35;3.08;;;;;;;;;;4970846;28;20042;-77
2022/08/26 05:33:18;;;;;;;9.18;2.58;;;;;;;;;;4964354;28;20429;-75
2022/08/26 05:35:45;;;;;;;13.65;3.47;;;;;;;;;;4944733;29;20035;-79
2022/08/26 05:38:14;;;;;;;16.42;3.20;;;;;;;;;;4933693;29;20118;-78
2022/08/26 05:40:45;;;;;;;13.60;3.10;;;;;;;;;;4938547;29;20445;-77
2022/08/26 05:43:12;;;;;;;7.82;2.60;;;;;;;;;;4951847;29;20027;-78
2022/08/26 05:45:41;;;;;;;25.88;3.08;;;;;;;;;;4950821;29;20517;-77
2022/08/26 05:48:07;;;;;;;13.68;3.25;;;;;;;;;;4953354;29;20101;-76
2022/08/26 05:50:41;;;;;;;13.18;2.97;;;;;;;;;;4953097;29;20451;-77
2022/08/26 05:53:09;;;;;;;10.52;2.90;;;;;;;;;;4954071;29;20160;-77
2022/08/26 05:55:42;;;;;;;19.45;5.53;;;;;;;;;;4945167;29;20027;-76
2022/08/26 05:58:08;;;;;;;;;;;;;;;;;;4940171;29;20485;-77
2022/08/26 06:00:34;;;;;;;10.90;3.10;;;;;;;;;;4957711;29;19918;-75
2022/08/26 06:03:00;;;;;;;12.43;3.15;;;;;;;;;;4954300;29;20479;-76
2022/08/26 06:05:25;;;;;;;16.38;3.40;;;;;;;;;;4948510;29;20087;-76
2022/08/26 06:10:45;;;;;;;18.23;4.00;;;;;;;;;;4957785;28;20035;-77
2022/08/26 06:13:12;;;;;;;10.85;3.03;;;;;;;;;;4940653;29;20090;-75
2022/08/26 06:15:42;;;;;;;14.55;3.30;;;;;;;;;;4957664;28;20031;-75
2022/08/26 06:18:08;;;;;;;8.57;3.22;;;;;;;;;;4956288;29;20482;-77
2022/08/26 06:20:35;;;;;;;8.82;3.25;;;;;;;;;;4951674;28;20035;-77
2022/08/26 06:25:47;;;;;;;12.95;2.88;;;;;;;;;;4938692;29;20114;-78
2022/08/26 06:28:14;;;;;;;11.88;2.80;;;;;;;;;;4944041;28;20070;-75
2022/08/26 06:30:41;;;;;;;7.88;2.65;;;;;;;;;;4957079;29;20032;-80
2022/08/26 06:33:08;;;;;;;7.32;2.60;;;;;;;;;;4946838;29;20031;-81
2022/08/26 06:35:38;;;;;;;11.13;3.05;;;;;;;;;;4939933;29;20039;-83
2022/08/26 06:38:05;;;;;;;7.40;2.88;;;;;;;;;;4957367;29;20046;-78
2022/08/26 06:40:31;;;;;;;9.70;2.70;;;;;;;;;;4953675;29;20466;-80
2022/08/26 06:42:57;;;;;;;14.38;3.75;;;;;;;;;;4955899;29;20035;-82
2022/08/26 06:45:23;;;;;;;13.65;3.42;;;;;;;;;;4955624;28;20042;-78
2022/08/26 06:47:49;;;;;;;9.85;3.20;;;;;;;;;;4955570;28;20099;-77
2022/08/26 06:50:15;;;;;;;10.35;2.85;;;;;;;;;;4956075;28;20039;-74
2022/08/26 06:52:41;;;;;;;10.25;2.50;;;;;;;;;;4955859;29;20478;-82
2022/08/26 06:55:07;;;;;;;8.00;2.80;;;;;;;;;;4955489;28;20363;-79
2022/08/26 06:57:35;;;;;;;12.43;3.17;;;;;;;;;;4955837;28;20126;-77
2022/08/26 07:00:08;;;;;;;11.73;2.85;;;;;;;;;;4938156;29;20483;-77
2022/08/26 07:02:34;;;;;;;12.95;3.80;;;;;;;;;;4955563;29;20035;-74
2022/08/26 07:05:00;;;;;;;11.13;3.10;;;;;;;;;;4956219;29;20054;-76
2022/08/26 07:07:26;;;;;;;12.13;3.25;;;;;;;;;;4956012;29;20090;-76
2022/08/26 07:09:51;;;;;;;6.20;2.85;;;;;;;;;;4953358;28;20494;-76
2022/08/26 07:12:18;;;;;;;11.25;2.72;;;;;;;;;;4954686;28;20127;-76
2022/08/26 07:14:43;;;;;;;6.97;3.35;;;;;;;;;;4955289;29;20051;-78
2022/08/26 07:17:09;;;;;;;18.73;3.53;;;;;;;;;;4950773;29;20114;-77
2022/08/26 07:19:35;;;;;;;11.88;2.90;;;;;;;;;;4947324;28;20033;-80
2022/08/26 07:22:04;;;;;;;10.82;3.28;;;;;;;;;;4956019;29;20103;-83
2022/08/26 07:24:32;;;;;;;7.35;3.30;;;;;;;;;;4954890;29;20050;-82
2022/08/26 07:27:04;;;;;;;8.85;3.15;;;;;;;;;;4955421;28;20438;-80
2022/08/26 07:29:30;;;;;;;8.70;3.35;;;;;;;;;;4955920;28;20082;-82
2022/08/26 07:31:56;;;;;;;9.93;3.38;;;;;;;;;;4955867;29;20069;-82
2022/08/26 07:34:22;;;;;;;10.13;2.70;;;;;;;;;;4938444;29;20035;-79
2022/08/26 07:36:50;;;;;;;10.77;3.30;;;;;;;;;;4955307;29;20054;-84
2022/08/26 07:39:17;;;;;;;11.90;4.03;;;;;;;;;;4953988;28;20545;-77
2022/08/26 07:41:45;;;;;;;10.60;3.60;;;;;;;;;;4954932;28;20079;-82
2022/08/26 07:44:14;;;;;;;8.98;3.10;;;;;;;;;;4955405;28;20098;-81
2022/08/26 07:46:40;;;;;;;12.07;3.47;;;;;;;;;;4955432;28;20390;-83
2022/08/26 07:49:06;;;;;;;7.85;3.15;;;;;;;;;;4954538;29;20031;-82
2022/08/26 07:51:32;;;;;;;5.97;2.63;;;;;;;;;;4954655;29;20027;-80
2022/08/26 07:53:58;;;;;;;5.68;2.72;;;;;;;;;;4955046;29;20031;-76
2022/08/26 07:56:24;;;;;;;8.82;3.40;;;;;;;;;;4954157;29;20106;-77
2022/08/26 07:58:51;;;;;;;9.23;3.50;;;;;;;;;;4936091;29;20040;-83
2022/08/26 08:01:36;;;;;;;12.65;3.55;;;;;;;;;;4936567;29;20024;-83
2022/08/26 08:04:03;;;;;;;9.93;3.50;;;;;;;;;;4945237;28;20035;-84
2022/08/26 08:06:29;;;;;;;8.88;3.35;;;;;;;;;;4953687;29;20465;-78
2022/08/26 08:08:56;;;;;;;11.02;3.20;;;;;;;;;;4953140;29;20061;-78
2022/08/26 08:11:22;;;;;;;13.35;3.97;;;;;;;;;;4953318;29;20027;-76
2022/08/26 08:13:49;;;;;;;11.07;3.90;;;;;;;;;;4955146;28;20411;-76
2022/08/26 08:16:15;;;;;;;7.22;3.42;;;;;;;;;;4939022;29;20350;-79
2022/08/26 08:18:41;;;;;;;8.63;3.67;;;;;;;;;;4934580;29;20122;-75
2022/08/26 08:21:07;;;;;;;6.10;3.13;;;;;;;;;;4935024;29;20030;-81
2022/08/26 08:23:33;;;;;;;11.85;3.60;;;;;;;;;;4956349;28;20031;-82
2022/08/26 08:26:05;;;;;;;11.52;3.85;;;;;;;;;;4955148;28;20029;-79
2022/08/26 08:28:31;;;;;;;9.98;3.63;;;;;;;;;;4943923;29;20138;-79
2022/08/26 08:30:57;;;;;;;12.68;4.00;;;;;;;;;;4953678;29;20031;-78
2022/08/26 08:33:23;;;;;;;9.75;3.53;;;;;;;;;;4953592;29;20031;-82
2022/08/26 08:35:49;;;;;;;7.80;3.95;;;;;;;;;;4936668;29;20035;-83
2022/08/26 08:38:15;;;;;;;10.05;3.78;;;;;;;;;;4949599;29;20410;-76
2022/08/26 08:40:44;;;;;;;9.80;3.45;;;;;;;;;;4945368;29;20032;-77
2022/08/26 08:43:28;;;;;;;8.63;4.28;;;;;;;;;;4951455;29;20090;-83
2022/08/26 08:46:02;;;;;;;8.40;3.83;;;;;;;;;;4933899;29;20149;-80
2022/08/26 08:48:32;;;;;;;8.15;3.53;;;;;;;;;;4952349;29;20051;-77
2022/08/26 08:51:16;;;;;;;10.98;3.85;;;;;;;;;;4953756;28;20027;-83
2022/08/26 08:53:46;;;;;;;9.13;4.03;;;;;;;;;;4942512;28;20032;-83
2022/08/26 08:56:40;;;;;;;12.15;4.30;;;;;;;;;;4951461;29;20201;-77
2022/08/26 08:59:17;;;;;;;9.55;3.75;;;;;;;;;;4953633;29;20483;-81
2022/08/26 09:01:51;;;;;;;17.13;3.97;;;;;;;;;;4952537;29;20031;-78
2022/08/26 09:04:23;;;;;;;7.53;3.50;;;;;;;;;;4935941;29;20040;-80
2022/08/26 09:06:53;;;;;;;14.77;3.90;;;;;;;;;;4952428;29;20027;-78
2022/08/26 09:09:48;;;;;;;14.82;3.88;;;;;;;;;;4952455;29;20050;-81
2022/08/26 09:12:19;;;;;;;9.85;3.80;;;;;;;;;;4936890;29;20031;-81
2022/08/26 09:14:47;;;;;;;10.48;4.05;;;;;;;;;;4953417;28;20050;-81
2022/08/26 09:17:16;;;;;;;10.35;3.90;;;;;;;;;;4953154;29;20103;-82
2022/08/26 09:19:50;;;;;;;13.05;4.13;;;;;;;;;;4952893;29;20062;-82
2022/08/26 09:26:18;;;;;;;11.98;3.83;;;;;;;;;;4971046;28;20050;-81
2022/08/26 09:29:08;;;;;;;11.10;4.15;;;;;;;;;;4972411;28;20214;-82
2022/08/26 09:31:36;;;;;;;10.27;4.10;;;;;;;;;;4972098;28;20042;-79
2022/08/26 09:34:19;;;;;;;17.33;4.82;;;;;;;;;;4972570;28;20053;-82
2022/08/26 09:36:47;;;;;;;10.35;4.18;;;;;;;;;;4972552;28;20071;-81
2022/08/26 09:39:35;;;;;;;13.82;4.50;;;;;;;;;;4972972;28;20078;-83
2022/08/26 09:42:19;;;;;;;13.35;4.10;;;;;;;;;;4973278;28;20085;-81
2022/08/26 09:44:53;;;;;;;11.02;4.28;;;;;;;;;;4972709;28;20125;-81
2022/08/26 09:47:28;;;;;;;20.77;5.28;;;;;;;;;;4972943;28;20039;-78
2022/08/26 09:50:04;;;;;;;11.50;4.53;;;;;;;;;;4973206;28;20042;-78
2022/08/26 09:52:30;;;;;;;16.50;4.55;;;;;;;;;;4972108;28;20129;-78
2022/08/26 09:55:19;;;;;;;11.95;4.32;;;;;;;;;;4972640;28;20098;-79
2022/08/26 09:57:49;;;;;;;17.90;4.45;;;;;;;;;;4971225;28;20065;-81
2022/08/26 10:00:37;;;;;;;11.50;4.15;;;;;;;;;;4972285;28;20512;-81
2022/08/26 10:03:11;;;;;;;12.15;4.60;;;;;;;;;;4972175;28;20061;-80
2022/08/26 10:05:42;;;;;;;14.38;4.38;;;;;;;;;;4972396;28;20053;-79
2022/08/26 10:08:28;;;;;;;14.57;4.45;;;;;;;;;;4972361;28;20043;-78
2022/08/26 10:10:57;;;;;;;17.50;4.97;;;;;;;;;;4972802;28;20039;-81
2022/08/26 10:13:27;;;;;;;13.60;4.47;;;;;;;;;;4954486;28;20023;-81
2022/08/26 10:16:07;;;;;;;15.45;4.60;;;;;;;;;;4972880;28;20390;-80
2022/08/26 10:18:40;;;;;;;11.32;4.78;;;;;;;;;;4972810;28;20039;-77
2022/08/26 10:21:14;;;;;;;18.15;4.60;;;;;;;;;;4972332;28;20039;-79
2022/08/26 10:23:48;;;;;;;11.73;4.13;;;;;;;;;;4972413;28;20071;-79
2022/08/26 10:26:29;;;;;;;12.48;4.18;;;;;;;;;;4973149;28;20042;-77
2022/08/26 10:29:08;;;;;;;12.90;3.85;;;;;;;;;;4972469;28;20042;-78
2022/08/26 10:31:41;;;;;;;15.50;5.07;;;;;;;;;;4972482;28;20078;-78
2022/08/26 10:34:09;;;;;;;14.48;4.70;;;;;;;;;;4972014;28;20078;-76
2022/08/26 10:36:48;;;;;;;17.25;4.97;;;;;;;;;;4971390;28;20035;-79
2022/08/26 10:39:28;;;;;;;11.98;4.30;;;;;;;;;;4954088;28;20090;-80
2022/08/26 10:42:01;;;;;;;11.57;4.28;;;;;;;;;;4952386;29;20031;-77
2022/08/26 10:44:33;;;;;;;15.77;4.22;;;;;;;;;;4940318;28;20067;-78
2022/08/26 10:47:20;;;;;;;11.40;4.43;;;;;;;;;;4937600;29;20067;-80
2022/08/26 10:49:48;;;;;;;13.30;4.10;;;;;;;;;;4936999;29;20431;-82
2022/08/26 10:52:39;;;;;;;13.45;5.72;;;;;;;;;;4937196;29;20046;-79
2022/08/26 10:55:31;;;;;;;13.75;4.57;;;;;;;;;;4947101;29;20032;-83
2022/08/26 10:58:25;;;;;;;15.10;5.45;;;;;;;;;;4955449;29;20035;-80
2022/08/26 11:04:12;;;;;;;10.50;4.38;;;;;;;;;;4936176;29;20032;-80
2022/08/26 11:06:38;;;;;;;21.15;10.02;;;;;;;;;;4934054;29;20118;-81
2022/08/26 11:09:07;;;;;;;15.95;8.48;;;;;;;;;;4934341;29;20172;-85
2022/08/26 11:11:39;;;;;;;15.65;6.20;;;;;;;;;;4934400;29;20116;-82
2022/08/26 11:14:09;;;;;;;15.07;4.70;;;;;;;;;;4935910;29;20127;-79
2022/08/26 11:16:50;;;;;;;14.93;4.63;;;;;;;;;;4936354;29;20046;-80
2022/08/26 11:19:34;;;;;;;16.38;4.50;;;;;;;;;;4937074;29;20059;-80
2022/08/26 11:22:04;;;;;;;10.85;4.05;;;;;;;;;;4944495;29;20430;-82
2022/08/26 11:25:07;;;;;;;10.52;3.53;;;;;;;;;;4954656;28;20040;-81
2022/08/26 11:27:36;;;;;;;12.65;4.53;;;;;;;;;;4917255;29;20051;-81
2022/08/26 11:30:05;;;;;;;11.65;4.03;;;;;;;;;;4956535;29;20137;-80
2022/08/26 11:32:34;;;;;;;12.93;4.00;;;;;;;;;;4955240;29;20043;-80
2022/08/26 11:35:10;;;;;;;17.25;4.35;;;;;;;;;;4956680;29;20066;-79
2022/08/26 11:37:39;;;;;;;14.07;4.05;;;;;;;;;;4939395;29;20040;-76
2022/08/26 11:40:14;;;;;;;13.00;3.33;;;;;;;;;;4956782;29;20090;-82
2022/08/26 11:42:50;;;;;;;17.83;3.75;;;;;;;;;;4956383;29;20038;-81
2022/08/26 11:45:24;;;;;;;14.23;3.58;;;;;;;;;;4956521;29;20035;-81
2022/08/26 11:47:50;;;;;;;13.63;3.80;;;;;;;;;;4956726;29;20566;-81
2022/08/26 11:50:25;;;;;;;8.40;3.88;;;;;;;;;;4939457;29;20144;-82
2022/08/26 11:53:00;;;;;;;19.30;3.78;;;;;;;;;;4956401;29;20038;-80
2022/08/26 11:55:28;;;;;;;19.13;3.83;;;;;;;;;;4955356;28;20046;-79
2022/08/26 11:57:56;;;;;;;14.82;4.28;;;;;;;;;;4956333;29;20024;-82
2022/08/26 12:00:27;;;;;;;14.43;3.97;;;;;;;;;;4956270;29;20055;-81
2022/08/26 12:02:54;;;;;;;17.50;4.03;;;;;;;;;;4956354;29;20042;-80
2022/08/26 12:05:54;;;;;;;24.02;4.47;;;;;;;;;;4956507;29;20027;-78
2022/08/26 12:08:42;;;;;;;19.80;4.28;;;;;;;;;;4955994;29;20060;-78
2022/08/26 12:11:31;;;;;;;24.85;4.93;;;;;;;;;;4956478;29;20035;-79
2022/08/26 12:14:19;;;;;;;17.13;4.05;;;;;;;;;;4955856;29;20067;-78
2022/08/26 12:16:45;;;;;;;15.07;3.95;;;;;;;;;;4955936;29;20127;-78
2022/08/26 12:19:25;;;;;;;20.83;3.95;;;;;;;;;;4955947;29;20114;-79
2022/08/26 12:22:03;;;;;;;21.83;4.18;;;;;;;;;;4955662;29;20435;-78
2022/08/26 12:24:29;;;;;;;16.58;4.70;;;;;;;;;;4955662;29;20034;-81
2022/08/26 12:27:19;;;;;;;11.85;4.13;;;;;;;;;;4955850;29;20023;-76
2022/08/26 12:30:19;;;;;;;20.40;3.95;;;;;;;;;;4955479;29;20047;-77
2022/08/26 12:32:51;;;;;;;13.27;3.30;;;;;;;;;;4953934;29;20050;-81
2022/08/26 12:35:20;;;;;;;14.23;3.40;;;;;;;;;;4938224;29;20110;-80
2022/08/26 12:37:50;;;;;;;11.20;3.97;;;;;;;;;;4955175;29;20031;-79
2022/08/26 12:40:25;;;;;;;14.68;4.35;;;;;;;;;;4955400;29;20035;-78
2022/08/26 12:42:52;;;;;;;10.80;3.63;;;;;;;;;;4955549;29;20066;-78
2022/08/26 12:45:34;;;;;;;12.52;3.95;;;;;;;;;;4955479;29;20370;-77
2022/08/26 12:48:23;;;;;;;17.15;3.88;;;;;;;;;;4955342;29;20062;-77
2022/08/26 12:50:50;;;;;;;10.38;3.80;;;;;;;;;;4955249;29;20508;-79
2022/08/26 12:53:24;;;;;;;9.43;3.65;;;;;;;;;;4937991;29;20036;-79
2022/08/26 12:55:52;;;;;;;15.10;4.88;;;;;;;;;;4955370;29;20478;-81
2022/08/26 12:58:20;;;;;;;12.95;3.92;;;;;;;;;;4955550;29;20066;-77
2022/08/26 13:01:21;;;;;;;7.80;3.63;;;;;;;;;;4955096;29;20050;-77
2022/08/26 13:03:48;;;;;;;10.85;3.45;;;;;;;;;;4941580;29;20606;-75
2022/08/26 13:06:16;;;;;;;10.25;3.63;;;;;;;;;;4954743;28;20023;-75
2022/08/26 13:08:50;;;;;;;8.10;3.50;;;;;;;;;;4954820;29;20486;-75
2022/08/26 13:11:25;;;;;;;6.85;3.08;;;;;;;;;;4937965;29;20034;-78
2022/08/26 13:13:55;;;;;;;9.52;3.50;;;;;;;;;;4955132;29;20496;-77
2022/08/26 13:16:22;;;;;;;8.82;3.63;;;;;;;;;;4954938;29;20478;-78
2022/08/26 13:18:56;;;;;;;11.00;3.63;;;;;;;;;;4954595;29;20041;-79
2022/08/26 13:21:26;;;;;;;13.25;3.50;;;;;;;;;;4955001;29;20046;-77
2022/08/26 13:23:52;;;;;;;8.82;3.00;;;;;;;;;;4955007;29;20035;-79
2022/08/26 13:26:19;;;;;;;10.10;2.88;;;;;;;;;;4954845;29;20497;-78
2022/08/26 13:28:45;;;;;;;5.53;2.92;;;;;;;;;;4611507;29;20089;-77
2022/08/26 13:31:13;;;;;;;10.73;3.10;;;;;;;;;;4954654;29;20074;-77
2022/08/26 13:33:39;;;;;;;8.15;3.08;;;;;;;;;;4954652;29;20110;-77
2022/08/26 13:36:05;;;;;;;6.50;3.03;;;;;;;;;;4954663;29;20063;-77
2022/08/26 13:38:32;;;;;;;8.15;3.08;;;;;;;;;;4954623;29;20466;-77
2022/08/26 13:40:58;;;;;;;12.30;3.22;;;;;;;;;;4937670;29;20039;-77
2022/08/26 13:43:29;;;;;;;10.88;3.30;;;;;;;;;;4954531;29;20032;-76
2022/08/26 13:45:55;;;;;;;9.02;3.00;;;;;;;;;;4937563;29;20031;-77
2022/08/26 13:48:21;;;;;;;16.80;3.50;;;;;;;;;;4954649;29;20028;-78
2022/08/26 13:50:48;;;;;;;6.95;3.05;;;;;;;;;;4953397;29;20058;-78
2022/08/26 13:53:15;;;;;;;8.95;3.30;;;;;;;;;;4951610;29;20106;-77
2022/08/26 13:55:42;;;;;;;12.63;3.55;;;;;;;;;;4949158;28;20042;-78
2022/08/26 13:58:09;;;;;;;13.43;3.38;;;;;;;;;;4949470;29;20031;-78
2022/08/26 14:00:36;;;;;;;11.15;3.70;;;;;;;;;;4951067;29;20387;-78
2022/08/26 14:03:03;;;;;;;12.20;3.58;;;;;;;;;;4934702;29;20031;-80
2022/08/26 14:05:29;;;;;;;10.27;3.22;;;;;;;;;;4935205;29;20044;-79
2022/08/26 14:07:58;;;;;;;8.63;3.53;;;;;;;;;;4933188;29;20038;-78
2022/08/26 14:10:26;;;;;;;12.07;4.57;;;;;;;;;;4934810;29;20034;-78
2022/08/26 14:12:52;;;;;;;17.52;3.88;;;;;;;;;;4933869;29;20502;-77
2022/08/26 14:15:18;;;;;;;9.27;3.30;;;;;;;;;;4933751;29;20040;-77
2022/08/26 14:17:48;;;;;;;9.23;3.50;;;;;;;;;;4943026;28;20066;-78
2022/08/26 14:20:19;;;;;;;15.65;3.42;;;;;;;;;;4956572;29;20035;-78
2022/08/26 14:22:45;;;;;;;9.80;3.15;;;;;;;;;;4957759;29;20032;-77
2022/08/26 14:25:12;;;;;;;11.75;3.60;;;;;;;;;;4956652;28;20027;-78
2022/08/26 14:27:39;;;;;;;10.70;3.55;;;;;;;;;;4957759;29;20078;-79
2022/08/26 14:30:07;;;;;;;13.20;3.72;;;;;;;;;;4957784;29;20449;-79
2022/08/26 14:32:33;;;;;;;11.15;4.13;;;;;;;;;;4958017;29;20474;-78
2022/08/26 14:35:00;;;;;;;11.48;3.65;;;;;;;;;;4958233;28;20058;-81
2022/08/26 14:37:26;;;;;;;15.10;4.43;;;;;;;;;;4957663;29;20039;-77
2022/08/26 14:39:52;;;;;;;15.50;3.85;;;;;;;;;;4957661;29;20066;-78
2022/08/26 14:42:23;;;;;;;18.48;4.38;;;;;;;;;;4956712;29;20074;-78
2022/08/26 14:44:54;;;;;;;13.93;3.60;;;;;;;;;;4957558;28;20035;-78
2022/08/26 14:47:21;;;;;;;13.48;3.70;;;;;;;;;;4957641;29;20035;-78
2022/08/26 14:49:47;;;;;;;8.63;3.45;;;;;;;;;;4957414;29;20050;-78
2022/08/26 14:52:12;;;;;;;12.02;4.22;;;;;;;;;;4957172;29;20035;-78
2022/08/26 14:54:38;;;;;;;16.42;3.95;;;;;;;;;;4956956;28;20028;-78
2022/08/26 14:57:10;;;;;;;15.20;4.13;;;;;;;;;;4957073;29;20035;-79
2022/08/26 14:59:44;;;;;;;12.30;4.38;;;;;;;;;;4957386;29;20042;-78
2022/08/26 15:02:12;;;;;;;11.90;3.60;;;;;;;;;;4957338;29;20040;-77
2022/08/26 15:04:39;;;;;;;11.35;3.70;;;;;;;;;;4957294;28;20059;-78
2022/08/26 15:07:06;;;;;;;10.18;3.47;;;;;;;;;;4957270;29;20042;-77
2022/08/26 15:09:35;;;;;;;18.08;4.43;;;;;;;;;;4957276;29;20027;-76
2022/08/26 15:12:01;;;;;;;12.45;4.05;;;;;;;;;;4956969;29;20038;-78
2022/08/26 15:14:27;;;;;;;13.50;4.68;;;;;;;;;;4971917;28;20061;-78
2022/08/26 15:16:55;;;;;;;10.32;3.80;;;;;;;;;;4957343;29;20035;-80
2022/08/26 15:19:23;;;;;;;10.50;3.80;;;;;;;;;;4957028;29;20083;-82
2022/08/26 15:21:50;;;;;;;14.73;4.22;;;;;;;;;;4955727;29;20106;-83